Time;durP1;ratioP1;P1;durP2;ratioP2;P2;SDS_P1;SDS_P2;PMS_P1;PMS_P2;Temp;Humidity;BMP_temperature;BMP_pressure;BME280_temperature;BME280_humidity;BME280_pressure;Samples;Min_cycle;Max_cycle;Signal;HPM_P1;HPM_P2
2022/07/31 00:00:34;;;;;;;;;;;;;;;21.78;32.90;97609.09;4788670;30;1014;-78
2022/07/31 00:03:00;;;;;;;;;;;;;;;21.87;32.40;97618.94;4788946;30;945;-79
2022/07/31 00:05:25;;;;;;;;;;;;;;;21.77;32.00;97621.69;4788464;30;990;-79
2022/07/31 00:07:53;;;;;;;;;;;;;;;21.85;31.76;97610.91;4752912;30;986;-79
2022/07/31 00:10:19;;;;;;;;;;;;;;;22.02;31.22;97618.00;4752995;30;1973;-78
2022/07/31 00:12:44;;;;;;;;;;;;;;;21.83;31.20;97614.19;4753212;30;943;-79
2022/07/31 00:15:11;;;;;;;;;;;;;;;21.84;31.02;97610.09;4752878;30;1479;-79
2022/07/31 00:17:37;;;;;;;;;;;;;;;21.98;30.40;97613.72;4752975;30;1199;-79
2022/07/31 00:20:02;;;;;;;;;;;;;;;21.78;30.82;97611.94;4766519;30;960;-79
2022/07/31 00:22:28;;;;;;;;;;;;;;;21.78;30.47;97616.81;4783900;29;960;-79
2022/07/31 00:24:53;;;;;;;;;;;;;;;21.54;30.72;97619.19;4788733;29;1128;-79
2022/07/31 00:27:19;;;;;;;;;;;;;;;21.49;30.76;97628.25;4788812;29;969;-79
2022/07/31 00:29:45;;;;;;;;;;;;;;;21.81;30.13;97627.22;4788458;29;1982;-79
2022/07/31 00:32:10;;;;;;;;;;;;;;;21.91;30.03;97630.94;4788479;29;959;-79
2022/07/31 00:34:36;;;;;;;;;;;;;;;21.76;30.09;97628.59;4788575;29;1660;-79
2022/07/31 00:37:01;;;;;;;;;;;;;;;21.81;29.92;97633.69;4792167;30;1123;-78
2022/07/31 00:39:27;;;;;;;;;;;;;;;21.72;29.53;97633.59;4758682;30;1190;-79
2022/07/31 00:41:53;;;;;;;;;;;;;;;21.85;29.57;97633.56;4738539;30;1070;-79
2022/07/31 00:44:20;;;;;;;;;;;;;;;21.53;29.99;97629.72;4738219;30;1062;-79
2022/07/31 00:46:45;;;;;;;;;;;;;;;21.69;29.75;97642.19;4738591;30;1173;-79
2022/07/31 00:49:11;;;;;;;;;;;;;;;21.52;29.69;97639.47;4738253;30;1037;-79
2022/07/31 00:51:36;;;;;;;;;;;;;;;21.68;29.30;97635.72;4725388;30;1916;-79
2022/07/31 00:54:02;;;;;;;;;;;;;;;21.81;29.50;97639.34;4721128;30;1020;-79
2022/07/31 00:56:27;;;;;;;;;;;;;;;21.71;29.54;97637.66;4720750;30;1030;-79
2022/07/31 00:58:56;;;;;;;;;;;;;;;21.89;29.04;97636.28;4720804;30;1046;-79
2022/07/31 01:01:21;;;;;;;;;;;;;;;21.68;29.86;97632.91;4720898;30;1054;-79
2022/07/31 01:03:47;;;;;;;;;;;;;;;21.51;30.12;97634.28;4721042;30;1006;-79
2022/07/31 01:06:12;;;;;;;;;;;;;;;21.60;30.01;97642.88;4689960;30;1113;-80
2022/07/31 01:08:38;;;;;;;;;;;;;;;21.70;29.99;97644.56;4686141;30;1034;-78
2022/07/31 01:11:14;;;;;;;;;;;;;;;21.59;30.33;97638.44;4707163;30;1985;-79
2022/07/31 01:13:57;;;;;;;;;;;;;;;21.78;29.78;97634.59;4720757;30;958;-79
2022/07/31 01:16:26;;;;;;;;;;;;;;;21.59;30.08;97635.63;4704525;30;2051;-79
2022/07/31 01:18:54;;;;;;;;;;;;;;;21.56;30.41;97640.16;4731189;30;1229;-79
2022/07/31 01:21:24;;;;;;;;;;;;;;;21.67;30.17;97645.47;4770135;30;1078;-79
2022/07/31 01:23:58;;;;;;;;;;;;;;;21.68;30.06;97647.06;4770220;30;1311;-79
2022/07/31 01:26:32;;;;;;;;;;;;;;;21.39;30.72;97635.84;4770305;30;1436;-78
2022/07/31 01:29:08;;;;;;;;;;;;;;;21.50;30.47;97635.50;4770327;30;1131;-78
2022/07/31 01:31:44;;;;;;;;;;;;;;;21.52;30.16;97633.03;4769837;30;1928;-80
2022/07/31 01:34:22;;;;;;;;;;;;;;;21.67;30.01;97628.50;4755140;30;1130;-79
2022/07/31 01:36:52;;;;;;;;;;;;;;;21.40;30.55;97623.31;4702635;30;1226;-79
2022/07/31 01:39:18;;;;;;;;;;;;;;;21.56;30.28;97628.84;4688251;30;1188;-79
2022/07/31 01:41:45;;;;;;;;;;;;;;;21.57;30.09;97618.31;4653881;30;1376;-79
2022/07/31 01:44:11;;;;;;;;;;;;;;;21.66;30.08;97617.59;4672829;30;1128;-79
2022/07/31 01:46:36;;;;;;;;;;;;;;;21.71;29.54;97617.84;4685011;30;1218;-79
2022/07/31 01:49:02;;;;;;;;;;;;;;;21.70;29.64;97610.56;4682343;30;1116;-79
2022/07/31 01:51:29;;;;;;;;;;;;;;;21.47;30.04;97605.28;4679834;30;1916;-78
2022/07/31 01:53:54;;;;;;;;;;;;;;;21.44;29.99;97603.34;4651267;30;982;-79
2022/07/31 01:56:20;;;;;;;;;;;;;;;21.45;29.82;97610.59;4679608;30;1108;-79
2022/07/31 01:58:45;;;;;;;;;;;;;;;21.54;29.69;97603.00;4665402;30;1173;-79
2022/07/31 02:01:49;;;;;;;;;;;;;;;21.54;29.57;97607.88;4660683;30;1055;-79
2022/07/31 02:04:15;;;;;;;;;;;;;;;21.64;29.12;97601.06;4669210;30;1168;-79
2022/07/31 02:06:41;;;;;;;;;;;;;;;21.76;29.07;97590.97;4686450;30;1249;-79
2022/07/31 02:09:07;;;;;;;;;;;;;;;21.82;28.86;97589.94;4719785;30;1136;-79
2022/07/31 02:11:33;;;;;;;;;;;;;;;21.69;28.91;97592.00;4719695;30;1983;-79
2022/07/31 02:13:59;;;;;;;;;;;;;;;21.62;29.03;97586.59;4733927;30;1374;-79
2022/07/31 02:16:27;;;;;;;;;;;;;;;21.77;28.99;97582.03;4718829;30;1712;-79
2022/07/31 02:19:02;;;;;;;;;;;;;;;21.51;29.01;97586.16;4734546;30;1380;-78
2022/07/31 02:21:27;;;;;;;;;;;;;;;21.92;29.63;97581.56;4788050;29;977;-79
2022/07/31 02:23:53;;;;;;;;;;;;;;;22.36;31.60;97591.72;4793580;29;1136;-79
2022/07/31 02:26:18;;;;;;;;;;;;;;;21.97;32.44;97578.13;4792861;29;1032;-78
2022/07/31 02:28:44;;;;;;;;;;;;;;;21.88;32.43;97575.22;4778224;29;1258;-79
2022/07/31 02:31:10;;;;;;;;;;;;;;;21.93;32.18;97571.81;4793095;29;1907;-79
2022/07/31 02:33:35;;;;;;;;;;;;;;;22.01;31.75;97573.13;4794745;29;1070;-79
2022/07/31 02:36:01;;;;;;;;;;;;;;;21.79;32.32;97579.53;4771830;30;1563;-78
2022/07/31 02:38:28;;;;;;;;;;;;;;;21.68;32.35;97573.44;4757606;30;1266;-79
2022/07/31 02:40:55;;;;;;;;;;;;;;;21.68;31.96;97573.44;4772491;30;1039;-78
2022/07/31 02:43:21;;;;;;;;;;;;;;;21.90;31.67;97572.72;4757248;30;1157;-79
2022/07/31 02:45:46;;;;;;;;;;;;;;;21.87;31.78;97573.63;4772531;30;1188;-79
2022/07/31 02:48:12;;;;;;;;;;;;;;;21.60;32.42;97583.41;4771996;30;1092;-79
2022/07/31 02:50:43;;;;;;;;;;;;;;;21.74;32.04;97565.94;4771866;30;1978;-79
2022/07/31 02:53:09;;;;;;;;;;;;;;;21.78;31.94;97566.63;4772261;30;961;-78
2022/07/31 02:55:34;;;;;;;;;;;;;;;21.73;31.83;97561.53;4760140;30;1240;-79
2022/07/31 02:58:01;;;;;;;;;;;;;;;21.97;31.30;97561.94;4784184;29;1221;-78
2022/07/31 03:00:27;;;;;;;;;;;;;;;21.91;31.64;97562.94;4781616;29;1279;-77
2022/07/31 03:02:53;;;;;;;;;;;;;;;21.85;31.34;97560.69;4778963;30;1311;-78
2022/07/31 03:05:19;;;;;;;;;;;;;;;21.71;31.77;97551.91;4789314;29;1183;-78
2022/07/31 03:07:45;;;;;;;;;;;;;;;21.66;31.62;97553.28;4801845;29;1421;-78
2022/07/31 03:10:11;;;;;;;;;;;;;;;21.82;31.20;97549.50;4783202;29;1908;-79
2022/07/31 03:12:44;;;;;;;;;;;;;;;21.86;31.12;97550.16;4780544;30;1303;-80
2022/07/31 03:15:11;;;;;;;;;;;;;;;21.82;31.26;97555.97;4794277;29;1314;-78
2022/07/31 03:17:37;;;;;;;;;;;;;;;21.81;31.17;97554.38;4778984;30;1346;-80
2022/07/31 03:20:04;;;;;;;;;;;;;;;21.61;31.22;97555.91;4765708;30;1295;-80
2022/07/31 03:22:29;;;;;;;;;;;;;;;21.72;31.20;97556.34;4763044;30;1307;-79
2022/07/31 03:24:56;;;;;;;;;;;;;;;21.74;30.81;97554.63;4752038;30;1313;-79
2022/07/31 03:27:22;;;;;;;;;;;;;;;21.83;30.98;97548.25;4738967;30;1340;-79
2022/07/31 03:29:48;;;;;;;;;;;;;;;21.88;30.96;97549.72;4750366;30;1912;-79
2022/07/31 03:32:14;;;;;;;;;;;;;;;21.84;30.99;97553.47;4735335;30;1337;-79
2022/07/31 03:34:39;;;;;;;;;;;;;;;22.01;30.46;97544.78;4718391;30;1035;-79
2022/07/31 03:37:05;;;;;;;;;;;;;;;21.89;30.58;97554.13;4718198;30;1095;-79
2022/07/31 03:39:31;;;;;;;;;;;;;;;21.98;30.49;97551.38;4732608;30;1078;-79
2022/07/31 03:42:02;;;;;;;;;;;;;;;22.00;30.29;97544.00;4735441;30;1260;-79
2022/07/31 03:44:28;;;;;;;;;;;;;;;21.76;30.98;97552.13;4734813;30;1373;-79
2022/07/31 03:46:54;;;;;;;;;;;;;;;21.95;30.35;97546.63;4735505;30;969;-79
2022/07/31 03:49:19;;;;;;;;;;;;;;;22.04;29.99;97549.56;4748779;30;986;-78
2022/07/31 03:51:45;;;;;;;;;;;;;;;21.94;30.31;97545.06;4752406;30;1990;-79
2022/07/31 03:54:10;;;;;;;;;;;;;;;21.82;30.53;97538.97;4766550;30;1217;-79
2022/07/31 03:56:50;;;;;;;;;;;;;;;21.65;30.49;97539.56;4769436;30;1398;-79
2022/07/31 03:59:16;;;;;;;;;;;;;;;21.84;30.37;97536.47;4766957;30;1382;-79
2022/07/31 04:01:42;;;;;;;;;;;;;;;21.92;30.28;97530.56;4752159;30;1192;-79
2022/07/31 04:04:12;;;;;;;;;;;;;;;21.80;30.62;97532.97;4763644;30;1318;-78
2022/07/31 04:06:53;;;;;;;;;;;;;;;22.05;30.15;97525.63;4762447;29;1698;-79
2022/07/31 04:09:19;;;;;;;;;;;;;;;21.78;30.33;97531.84;4749180;30;1221;-79
2022/07/31 04:11:46;;;;;;;;;;;;;;;21.88;30.31;97535.56;4749468;30;1971;-79
2022/07/31 04:14:12;;;;;;;;;;;;;;;21.67;30.73;97535.06;4734929;30;1181;-79
2022/07/31 04:16:37;;;;;;;;;;;;;;;21.95;30.02;97535.31;4737421;30;1136;-79
2022/07/31 04:19:03;;;;;;;;;;;;;;;21.82;30.27;97533.31;4788164;30;1058;-78
2022/07/31 04:21:29;;;;;;;;;;;;;;;21.88;30.63;97529.91;4800527;29;1152;-78
2022/07/31 04:23:54;;;;;;;;;;;;;;;21.81;30.52;97525.25;4773275;30;1105;-79
2022/07/31 04:26:37;;;;;;;;;;;;;;;21.62;31.03;97535.63;4755889;30;1135;-79
2022/07/31 04:29:03;;;;;;;;;;;;;;;21.67;31.19;97532.22;4742383;30;1014;-79
2022/07/31 04:31:29;;;;;;;;;;;;;;;21.64;31.42;97533.13;4752691;30;1983;-79
2022/07/31 04:33:55;;;;;;;;;;;;;;;21.76;31.03;97523.81;4767234;30;1164;-79
2022/07/31 04:36:21;;;;;;;;;;;;;;;21.77;31.55;97519.72;4752694;30;1262;-79
2022/07/31 04:38:47;;;;;;;;;;;;;;;21.73;31.23;97524.72;4752580;30;1037;-79
2022/07/31 04:41:13;;;;;;;;;;;;;;;21.54;31.61;97528.63;4752457;30;1191;-79
2022/07/31 04:43:38;;;;;;;;;;;;;;;21.95;30.96;97530.41;4752667;30;1015;-79
2022/07/31 04:46:03;;;;;;;;;;;;;;;21.94;31.28;97533.72;4752374;30;1357;-79
2022/07/31 04:48:29;;;;;;;;;;;;;;;21.98;30.97;97526.69;4752454;30;954;-79
2022/07/31 04:50:54;;;;;;;;;;;;;;;22.09;30.97;97540.47;4783137;29;1916;-80
2022/07/31 04:53:20;;;;;;;;;;;;;;;21.64;31.92;97533.13;4751989;30;1439;-79
2022/07/31 04:56:32;;;;;;;;;;;;;;;21.87;31.11;97536.81;4752197;30;1144;-79
2022/07/31 04:58:33;;;;;;;;;;;;;;;21.96;31.15;97536.88;4783572;29;1024;-79
2022/07/31 05:01:00;;;;;;;;;;;;;;;21.63;32.01;97531.53;4805922;29;1132;-79
2022/07/31 05:03:27;;;;;;;;;;;;;;;21.89;31.50;97537.13;4805940;29;1169;-78
2022/07/31 05:05:52;;;;;;;;;;;;;;;21.88;31.79;97524.22;4819551;29;1499;-79
2022/07/31 05:08:18;;;;;;;;;;;;;;;21.77;31.81;97533.91;4805931;29;1172;-78
2022/07/31 05:13:43;;;;;;;;;;;;;;;21.86;31.88;97533.16;4805682;29;1143;-79
2022/07/31 05:16:11;;;;;;;;;;;;;;;21.69;32.20;97532.53;4770293;30;1283;-79
2022/07/31 05:18:37;;;;;;;;;;;;;;;21.87;31.60;97528.31;4787617;30;1145;-79
2022/07/31 05:21:20;;;;;;;;;;;;;;;21.84;31.68;97535.69;4788958;29;1072;-79
2022/07/31 05:24:01;;;;;;;;;;;;;;;21.95;31.68;97547.41;4755327;30;1206;-79
2022/07/31 05:26:44;;;;;;;;;;;;;;;21.83;31.76;97542.59;4755320;30;1131;-78
2022/07/31 05:29:09;;;;;;;;;;;;;;;22.21;31.00;97548.13;4726238;30;1208;-79
2022/07/31 05:31:35;;;;;;;;;;;;;;;21.89;31.61;97548.47;4714570;30;1908;-78
2022/07/31 05:34:01;;;;;;;;;;;;;;;21.74;31.69;97548.97;4719652;30;1401;-79
2022/07/31 05:36:26;;;;;;;;;;;;;;;21.84;31.61;97539.28;4719746;30;1195;-79
2022/07/31 05:38:52;;;;;;;;;;;;;;;21.96;31.31;97543.34;4685112;30;1129;-79
2022/07/31 05:41:32;;;;;;;;;;;;;;;21.83;31.54;97540.56;4685215;30;1030;-79
2022/07/31 05:44:20;;;;;;;;;;;;;;;21.80;31.44;97552.00;4669920;30;1358;-79
2022/07/31 05:46:46;;;;;;;;;;;;;;;22.19;30.97;97562.00;4668315;30;977;-79
2022/07/31 05:49:12;;;;;;;;;;;;;;;21.90;31.32;97556.50;4634865;30;1265;-78
2022/07/31 05:51:38;;;;;;;;;;;;;;;21.71;31.68;97555.53;4637085;30;1912;-79
2022/07/31 05:54:03;;;;;;;;;;;;;;;21.79;31.63;97556.88;4617156;31;1688;-79
2022/07/31 05:56:47;;;;;;;;;;;;;;;21.80;31.41;97552.78;4619181;31;1017;-80
2022/07/31 05:59:16;;;;;;;;;;;;;;;21.83;31.59;97557.53;4635914;30;1266;-79
2022/07/31 06:01:42;;;;;;;;;;;;;;;21.87;31.45;97553.81;4668069;30;1211;-79
2022/07/31 06:04:07;;;;;;;;;;;;;;;21.77;31.78;97550.88;4655581;30;1110;-79
2022/07/31 06:06:40;;;;;;;;;;;;;;;21.96;31.60;97557.50;4687800;30;1367;-79
2022/07/31 06:09:05;;;;;;;;;;;;;;;21.88;31.65;97564.69;4710589;30;963;-78
2022/07/31 06:11:35;;;;;;;;;;;;;;;21.87;31.32;97562.31;4755707;30;1888;-79
2022/07/31 06:14:01;;;;;;;;;;;;;;;21.79;31.64;97556.09;4757263;30;1162;-78
2022/07/31 06:16:34;;;;;;;;;;;;;;;21.79;31.58;97553.25;4757433;30;1198;-80
2022/07/31 06:19:00;;;;;;;;;;;;;;;21.85;31.55;97560.69;4757611;30;1259;-80
2022/07/31 06:21:26;;;;;;;;;;;;;;;21.98;31.29;97557.06;4793311;29;1398;-78
2022/07/31 06:23:52;;;;;;;;;;;;;;;21.88;31.41;97553.34;4790067;30;1303;-78
2022/07/31 06:26:22;;;;;;;;;;;;;;;21.95;31.24;97563.63;4790241;30;1236;-79
2022/07/31 06:28:47;;;;;;;;;;;;;;;21.90;31.40;97550.84;4790288;30;1156;-79
2022/07/31 06:31:19;;;;;;;;;;;;;;;21.90;31.37;97555.72;4771863;30;1974;-78
2022/07/31 06:33:44;;;;;;;;;;;;;;;21.71;31.74;97560.41;4752863;30;1345;-79
2022/07/31 06:36:10;;;;;;;;;;;;;;;21.91;31.40;97555.25;4736279;30;1078;-80
2022/07/31 06:38:38;;;;;;;;;;;;;;;21.76;31.91;97554.97;4742187;30;1118;-79
2022/07/31 06:44:39;;;;;;;;;;;;;;;22.06;31.42;97553.50;4736274;30;979;-78
2022/07/31 06:47:14;;;;;;;;;;;;;;;22.24;31.05;97544.41;4736443;30;1045;-78
2022/07/31 06:49:48;;;;;;;;;;;;;;;22.15;31.32;97554.88;4718714;30;1070;-79
2022/07/31 06:52:14;;;;;;;;;;;;;;;21.95;31.56;97557.97;4718364;30;1913;-79
2022/07/31 06:54:41;;;;;;;;;;;;;;;21.93;31.51;97549.13;4735647;30;1304;-79
2022/07/31 06:57:07;;;;;;;;;;;;;;;22.13;31.41;97540.38;4753498;30;1286;-79
2022/07/31 06:59:33;;;;;;;;;;;;;;;22.12;31.15;97547.28;4753525;30;1186;-78
2022/07/31 07:01:58;;;;;;;;;;;;;;;22.25;31.10;97551.63;4725356;30;1125;-79
2022/07/31 07:04:24;;;;;;;;;;;;;;;22.04;31.58;97550.34;4718290;30;1323;-79
2022/07/31 07:06:49;;;;;;;;;;;;;;;22.06;31.36;97541.38;4706904;30;989;-79
2022/07/31 07:09:15;;;;;;;;;;;;;;;22.00;31.53;97548.88;4706567;30;1045;-80
2022/07/31 07:11:40;;;;;;;;;;;;;;;22.06;31.56;97541.38;4718444;30;1920;-79
2022/07/31 07:14:05;;;;;;;;;;;;;;;22.12;31.10;97545.22;4700783;30;1182;-80
2022/07/31 07:16:31;;;;;;;;;;;;;;;21.92;31.72;97536.22;4700763;30;987;-80
2022/07/31 07:18:56;;;;;;;;;;;;;;;21.90;31.51;97533.06;4701157;30;997;-79
2022/07/31 07:21:22;;;;;;;;;;;;;;;21.89;31.43;97537.13;4702968;30;1268;-79
2022/07/31 07:23:47;;;;;;;;;;;;;;;21.82;31.76;97533.31;4718058;30;1240;-79
2022/07/31 07:26:36;;;;;;;;;;;;;;;21.89;31.58;97537.13;4707360;30;1030;-79
2022/07/31 07:29:03;;;;;;;;;;;;;;;21.89;31.58;97531.47;4675188;30;1105;-79
2022/07/31 07:31:29;;;;;;;;;;;;;;;22.10;31.50;97542.03;4718253;30;1908;-79
2022/07/31 07:33:55;;;;;;;;;;;;;;;21.98;31.61;97545.72;4718116;30;1287;-78
2022/07/31 07:36:22;;;;;;;;;;;;;;;22.01;31.41;97533.47;4718050;30;1094;-78
2022/07/31 07:38:48;;;;;;;;;;;;;;;22.20;31.06;97534.44;4700669;30;1120;-79
2022/07/31 07:41:14;;;;;;;;;;;;;;;21.92;31.50;97531.34;4700635;30;1687;-77
2022/07/31 07:43:40;;;;;;;;;;;;;;;22.16;31.18;97528.91;4700721;30;1157;-79
2022/07/31 07:46:06;;;;;;;;;;;;;;;22.12;31.47;97541.59;4698784;30;1202;-79
2022/07/31 07:48:32;;;;;;;;;;;;;;;21.98;31.57;97523.06;4710462;30;1146;-79
2022/07/31 07:51:16;;;;;;;;;;;;;;;22.04;31.74;97532.56;4700560;30;1915;-78
2022/07/31 07:53:51;;;;;;;;;;;;;;;22.04;31.51;97526.88;4700692;30;1245;-79
2022/07/31 07:56:32;;;;;;;;;;;;;;;21.95;31.64;97523.97;4700214;30;966;-78
2022/07/31 07:59:35;;;;;;;;;;;;;;;22.14;31.53;97530.63;4700350;30;1094;-78
2022/07/31 08:02:19;;;;;;;;;;;;;;;21.93;31.87;97532.16;4693005;30;1492;-78
2022/07/31 08:04:47;;;;;;;;;;;;;;;21.98;31.54;97529.50;4700787;30;1286;-80
2022/07/31 08:07:12;;;;;;;;;;;;;;;22.23;31.32;97540.00;4714175;30;930;-79
2022/07/31 08:09:38;;;;;;;;;;;;;;;22.08;31.35;97536.84;4732751;30;1169;-79
2022/07/31 08:12:33;;;;;;;;;;;;;;;21.97;31.82;97532.81;4751527;30;1221;-78
2022/07/31 08:15:19;;;;;;;;;;;;;;;21.88;31.85;97525.03;4746382;30;1193;-77
2022/07/31 08:17:53;;;;;;;;;;;;;;;21.94;31.77;97540.19;4738698;30;1104;-79
2022/07/31 08:20:20;;;;;;;;;;;;;;;21.98;31.76;97534.41;4717345;30;1484;-79
2022/07/31 08:22:47;;;;;;;;;;;;;;;22.30;31.35;97531.22;4717618;30;1138;-79
2022/07/31 08:25:12;;;;;;;;;;;;;;;22.21;31.25;97531.13;4717619;30;1354;-79
2022/07/31 08:27:38;;;;;;;;;;;;;;;22.22;31.59;97538.38;4720233;30;1029;-79
2022/07/31 08:30:04;;;;;;;;;;;;;;;21.97;31.69;97538.47;4734987;30;1908;-79
2022/07/31 08:32:29;;;;;;;;;;;;;;;22.14;31.22;97534.25;4736902;30;1427;-79
2022/07/31 08:35:09;;;;;;;;;;;;;;;22.09;31.22;97531.97;4728116;30;1129;-79
2022/07/31 08:37:36;;;;;;;;;;;;;;;22.01;31.42;97541.97;4733779;30;1161;-79
2022/07/31 08:40:02;;;;;;;;;;;;;;;21.97;31.69;97538.47;4703085;30;1367;-80
2022/07/31 08:42:28;;;;;;;;;;;;;;;22.10;31.39;97536.38;4717761;30;1218;-79
2022/07/31 08:44:54;;;;;;;;;;;;;;;22.09;31.37;97534.78;4735679;30;1020;-79
2022/07/31 08:47:25;;;;;;;;;;;;;;;22.27;31.08;97534.97;4755789;30;1491;-79
2022/07/31 08:49:52;;;;;;;;;;;;;;;22.35;30.95;97530.63;4783913;29;1315;-79
2022/07/31 08:52:18;;;;;;;;;;;;;;;22.14;31.14;97525.75;4794384;29;1939;-79
2022/07/31 08:55:06;;;;;;;;;;;;;;;22.25;31.18;97531.81;4800190;29;1018;-79
2022/07/31 08:57:32;;;;;;;;;;;;;;;22.05;31.25;97528.47;4789557;29;1196;-79
2022/07/31 08:59:57;;;;;;;;;;;;;;;22.23;31.27;97522.97;4784797;29;1287;-78
2022/07/31 09:02:23;;;;;;;;;;;;;;;22.22;31.12;97526.25;4771773;30;1212;-78
2022/07/31 09:05:08;;;;;;;;;;;;;;;22.28;31.08;97530.09;4766358;30;1153;-78
2022/07/31 09:07:33;;;;;;;;;;;;;;;22.36;31.18;97520.84;4752046;30;1348;-78
2022/07/31 09:09:59;;;;;;;;;;;;;;;22.18;31.60;97509.41;4755325;30;1908;-78
2022/07/31 09:12:25;;;;;;;;;;;;;;;22.27;31.98;97511.50;4720104;30;1549;-77
2022/07/31 09:15:17;;;;;;;;;;;;;;;22.21;31.93;97514.13;4680567;30;1115;-78
2022/07/31 09:17:43;;;;;;;;;;;;;;;22.34;31.95;97517.72;4660326;30;1236;-78
2022/07/31 09:20:15;;;;;;;;;;;;;;;22.18;32.28;97523.56;4634542;30;1270;-79
2022/07/31 09:22:41;;;;;;;;;;;;;;;22.05;32.40;97505.78;4635091;30;1017;-78
2022/07/31 09:25:08;;;;;;;;;;;;;;;22.22;32.25;97515.72;4634462;30;1159;-78
2022/07/31 09:27:34;;;;;;;;;;;;;;;22.28;32.49;97516.72;4631227;30;1210;-79
2022/07/31 09:29:59;;;;;;;;;;;;;;;22.33;32.01;97509.66;4649726;30;1976;-78
2022/07/31 09:32:48;;;;;;;;;;;;;;;22.20;32.32;97498.38;4652979;30;1037;-77
2022/07/31 09:35:20;;;;;;;;;;;;;;;22.17;32.41;97502.13;4648538;30;1305;-79
2022/07/31 09:37:46;;;;;;;;;;;;;;;22.10;32.64;97508.03;4651144;30;1109;-77
2022/07/31 09:40:35;;;;;;;;;;;;;;;22.31;32.29;97500.81;4650132;30;1004;-78
2022/07/31 09:43:23;;;;;;;;;;;;;;;22.38;32.24;97499.75;4633933;30;1030;-79
2022/07/31 09:45:56;;;;;;;;;;;;;;;22.22;32.88;97493.03;4617425;30;1156;-78
2022/07/31 09:48:22;;;;;;;;;;;;;;;22.14;33.02;97503.06;4645670;30;992;-79
2022/07/31 09:50:54;;;;;;;;;;;;;;;22.37;32.49;97504.63;4668076;30;1908;-79
2022/07/31 09:53:21;;;;;;;;;;;;;;;22.33;32.81;97504.78;4751532;30;1222;-78
2022/07/31 09:55:50;;;;;;;;;;;;;;;22.22;32.93;97504.38;4724182;30;1253;-79
2022/07/31 09:58:16;;;;;;;;;;;;;;;22.33;32.98;97504.78;4741753;30;964;-78
2022/07/31 10:00:41;;;;;;;;;;;;;;;22.53;32.28;97500.81;4715695;30;1094;-78
2022/07/31 10:03:07;;;;;;;;;;;;;;;22.43;32.58;97496.31;4668080;30;1085;-79
2022/07/31 10:05:33;;;;;;;;;;;;;;;22.44;32.60;97492.25;4749622;30;1250;-79
2022/07/31 10:08:00;;;;;;;;;;;;;;;22.26;32.88;97485.19;4753981;30;1280;-78
2022/07/31 10:10:46;;;;;;;;;;;;;;;22.38;33.00;97496.94;4740956;30;1908;-78
2022/07/31 10:13:24;;;;;;;;;;;;;;;22.42;32.85;97500.41;4722242;30;1213;-78
2022/07/31 10:15:51;;;;;;;;;;;;;;;22.41;32.95;97498.84;4730226;30;2180;-78
2022/07/31 10:18:40;;;;;;;;;;;;;;;22.57;32.43;97504.28;4719090;30;1100;-78
2022/07/31 10:21:14;;;;;;;;;;;;;;;22.45;32.95;97499.50;4719196;30;1439;-79
2022/07/31 10:23:54;;;;;;;;;;;;;;;22.47;32.90;97497.00;4701690;30;1035;-79
2022/07/31 10:26:22;;;;;;;;;;;;;;;22.38;32.81;97499.75;4716677;30;1118;-79
2022/07/31 10:28:48;;;;;;;;;;;;;;;22.48;32.70;97499.34;4708975;30;966;-78
2022/07/31 10:31:14;;;;;;;;;;;;;;;22.41;33.05;97513.81;4684674;30;1999;-79
2022/07/31 10:33:46;;;;;;;;;;;;;;;22.41;32.95;97498.84;4701839;30;1214;-79
2022/07/31 10:36:36;;;;;;;;;;;;;;;22.55;32.63;97503.97;4689533;30;1121;-78
2022/07/31 10:39:28;;;;;;;;;;;;;;;22.46;32.70;97495.41;4678073;30;1062;-78
2022/07/31 10:42:23;;;;;;;;;;;;;;;22.42;32.86;97501.22;4685020;30;1013;-78
2022/07/31 10:44:54;;;;;;;;;;;;;;;22.28;33.00;97501.75;4684683;30;1159;-79
2022/07/31 10:47:28;;;;;;;;;;;;;;;22.35;32.93;97502.28;4684585;30;1452;-79
2022/07/31 10:50:00;;;;;;;;;;;;;;;22.51;32.63;97494.81;4667521;30;1143;-78
2022/07/31 10:52:44;;;;;;;;;;;;;;;22.58;32.66;97497.38;4667454;30;1401;-78
2022/07/31 10:55:13;;;;;;;;;;;;;;;22.46;32.82;97496.19;4712281;30;952;-78
2022/07/31 10:57:51;;;;;;;;;;;;;;;22.39;32.75;97490.03;4721921;30;1111;-79
2022/07/31 11:01:03;;;;;;;;;;;;;;;22.23;32.94;97491.81;4719020;30;1022;-79
2022/07/31 11:03:43;;;;;;;;;;;;;;;22.51;32.22;97497.66;4684172;30;1045;-79
2022/07/31 11:06:36;;;;;;;;;;;;;;;22.31;32.61;97487.44;4684020;30;1048;-79
2022/07/31 11:09:22;;;;;;;;;;;;;;;22.53;32.39;97489.47;4669901;30;1262;-78
2022/07/31 11:11:55;;;;;;;;;;;;;;;22.40;32.71;97485.94;4679816;30;1975;-79
2022/07/31 11:14:38;;;;;;;;;;;;;;;22.40;32.46;97480.25;4649825;30;1359;-79
2022/07/31 11:17:32;;;;;;;;;;;;;;;22.16;33.14;97485.59;4649979;30;968;-78
2022/07/31 11:20:21;;;;;;;;;;;;;;;22.16;32.88;97489.22;4626370;30;942;-78
2022/07/31 11:22:53;;;;;;;;;;;;;;;22.31;32.88;97487.44;4616240;31;907;-79
2022/07/31 11:25:19;;;;;;;;;;;;;;;22.21;32.76;97482.19;4615848;31;978;-78
2022/07/31 11:27:44;;;;;;;;;;;;;;;22.38;32.65;97485.59;4616525;31;913;-78
2022/07/31 11:30:10;;;;;;;;;;;;;;;22.49;32.23;97483.94;4615862;31;1901;-78
2022/07/31 11:32:36;;;;;;;;;;;;;;;22.33;32.21;97482.13;4587481;31;1007;-78
2022/07/31 11:35:01;;;;;;;;;;;;;;;22.40;32.19;97485.94;4606641;31;1290;-79
2022/07/31 11:37:29;;;;;;;;;;;;;;;22.42;32.10;97486.25;4638497;30;989;-78
2022/07/31 11:39:54;;;;;;;;;;;;;;;22.40;32.37;97491.59;4666516;30;984;-77
2022/07/31 11:42:20;;;;;;;;;;;;;;;22.52;31.75;97476.53;4672078;30;1008;-78
2022/07/31 11:44:46;;;;;;;;;;;;;;;22.25;32.34;97480.78;4703085;30;1035;-78
2022/07/31 11:47:11;;;;;;;;;;;;;;;22.34;31.90;97472.34;4718540;30;942;-78
2022/07/31 11:49:37;;;;;;;;;;;;;;;22.30;32.21;97477.38;4741041;30;1091;-79
2022/07/31 11:52:03;;;;;;;;;;;;;;;22.41;31.83;97476.16;4753263;30;1989;-78
2022/07/31 11:54:29;;;;;;;;;;;;;;;22.43;31.83;97465.94;4767202;30;1233;-78
2022/07/31 11:56:54;;;;;;;;;;;;;;;22.37;31.87;97467.78;4797603;29;963;-78
2022/07/31 11:59:29;;;;;;;;;;;;;;;22.31;32.20;97467.59;4806678;29;1014;-77
2022/07/31 12:02:01;;;;;;;;;;;;;;;22.18;32.25;97464.06;4806642;29;959;-79
2022/07/31 12:04:26;;;;;;;;;;;;;;;22.18;32.16;97466.13;4807043;29;1147;-78
2022/07/31 12:06:55;;;;;;;;;;;;;;;22.51;31.90;97463.63;4792064;29;986;-78
2022/07/31 12:09:21;;;;;;;;;;;;;;;22.24;32.29;97461.44;4791988;29;1027;-78
2022/07/31 12:11:46;;;;;;;;;;;;;;;22.39;31.67;97456.00;4788709;30;1974;-78
2022/07/31 12:14:12;;;;;;;;;;;;;;;22.41;31.78;97459.16;4792453;29;977;-79
2022/07/31 12:16:39;;;;;;;;;;;;;;;22.46;31.61;97455.72;4822245;29;1459;-79
2022/07/31 12:19:04;;;;;;;;;;;;;;;22.45;31.47;97454.16;4806343;29;1003;-78
2022/07/31 12:21:32;;;;;;;;;;;;;;;22.50;31.63;97453.53;4806722;29;927;-78
2022/07/31 12:23:58;;;;;;;;;;;;;;;22.34;31.85;97457.41;4806947;29;969;-79
2022/07/31 12:26:30;;;;;;;;;;;;;;;22.47;31.58;97446.75;4806436;29;943;-79
2022/07/31 12:28:59;;;;;;;;;;;;;;;22.30;31.89;97454.69;4788393;29;1016;-78
2022/07/31 12:31:25;;;;;;;;;;;;;;;22.24;32.24;97447.25;4769290;30;1981;-79
2022/07/31 12:33:50;;;;;;;;;;;;;;;22.41;31.44;97456.31;4770531;30;1147;-79
2022/07/31 12:36:16;;;;;;;;;;;;;;;22.46;31.56;97444.38;4770785;30;1223;-78
2022/07/31 12:38:41;;;;;;;;;;;;;;;22.48;31.51;97441.88;4770791;30;987;-78
2022/07/31 12:41:07;;;;;;;;;;;;;;;22.31;31.57;97439.25;4770427;30;1035;-78
2022/07/31 12:43:32;;;;;;;;;;;;;;;22.50;31.46;97433.69;4785047;30;998;-78
2022/07/31 12:45:59;;;;;;;;;;;;;;;22.41;31.50;97442.94;4788375;30;1046;-78
2022/07/31 12:48:25;;;;;;;;;;;;;;;22.53;31.62;97441.25;4773885;30;1040;-79
2022/07/31 12:50:51;;;;;;;;;;;;;;;22.38;31.54;97437.41;4800337;29;1920;-79
2022/07/31 12:53:16;;;;;;;;;;;;;;;22.22;31.81;97436.38;4806448;29;965;-78
2022/07/31 12:55:41;;;;;;;;;;;;;;;22.36;31.61;97447.16;4806254;29;954;-79
2022/07/31 12:58:07;;;;;;;;;;;;;;;22.40;31.38;97440.56;4806142;29;1004;-79
2022/07/31 13:00:32;;;;;;;;;;;;;;;22.52;31.20;97439.69;4821641;29;1465;-78
2022/07/31 13:02:58;;;;;;;;;;;;;;;22.31;31.60;97433.59;4804626;29;1298;-79
2022/07/31 13:05:23;;;;;;;;;;;;;;;22.35;31.33;97431.41;4843359;29;1087;-79
2022/07/31 13:07:49;;;;;;;;;;;;;;;22.43;31.32;97425.47;4842529;29;939;-77
2022/07/31 13:10:15;;;;;;;;;;;;;;;22.67;30.83;97423.69;4827615;29;1916;-79
2022/07/31 13:12:41;;;;;;;;;;;;;;;22.51;31.19;97421.88;4842969;29;977;-78
2022/07/31 13:15:06;;;;;;;;;;;;;;;22.44;31.30;97424.22;4843011;29;1076;-78